createdAt,value
2023-03-05T00:00:05.706Z,0.00
2023-03-05T00:05:08.179Z,-0.10
2023-03-05T00:10:10.478Z,0.00
2023-03-05T00:15:12.539Z,-0.10
2023-03-05T00:20:14.546Z,-0.10
2023-03-05T00:25:16.368Z,-0.10
2023-03-05T00:30:18.126Z,-0.10
2023-03-05T00:35:19.923Z,-0.20
2023-03-05T00:40:21.940Z,-0.10
2023-03-05T00:45:23.806Z,0.10
2023-03-05T00:50:26.196Z,0.00
2023-03-05T00:55:27.902Z,0.00
2023-03-05T01:00:29.965Z,0.00
2023-03-05T01:05:31.981Z,-0.10
2023-03-05T01:10:34.174Z,-0.20
2023-03-05T01:15:35.910Z,-0.10
2023-03-05T01:20:37.682Z,-0.20
2023-03-05T01:25:39.759Z,-0.20
2023-03-05T01:30:41.510Z,-0.20
2023-03-05T01:35:45.560Z,-0.10
2023-03-05T01:40:47.338Z,-0.20
2023-03-05T01:46:26.498Z,-0.10
2023-03-05T01:51:32.797Z,-0.10
2023-03-05T01:56:35.037Z,-0.20
2023-03-05T02:01:50.780Z,-0.30
2023-03-05T02:06:52.624Z,-0.30
2023-03-05T02:11:56.083Z,-0.30
2023-03-05T02:16:57.932Z,-0.40
2023-03-05T02:21:59.622Z,-0.50
2023-03-05T02:27:03.281Z,-0.50
2023-03-05T02:32:05.260Z,-0.50
2023-03-05T02:37:09.338Z,-0.60
2023-03-05T02:42:11.105Z,-0.60
2023-03-05T02:47:12.932Z,-0.60
2023-03-05T02:52:14.683Z,-0.60
2023-03-05T02:57:16.891Z,-0.80
2023-03-05T03:02:18.930Z,-0.90
2023-03-05T03:07:20.713Z,-1.00
2023-03-05T03:12:23.151Z,-1.10
2023-03-05T03:17:24.892Z,-1.10
2023-03-05T03:22:26.812Z,-1.10
2023-03-05T03:27:28.614Z,-1.10
2023-03-05T03:32:31.565Z,-1.00
2023-03-05T03:37:33.812Z,-0.90
2023-03-05T03:42:35.880Z,-0.90
2023-03-05T03:47:37.632Z,-1.00
2023-03-05T03:52:39.395Z,-0.90
2023-03-05T03:57:41.342Z,-0.90
2023-03-05T04:02:43.387Z,-0.90
2023-03-05T04:07:45.429Z,-0.90
2023-03-05T04:12:47.227Z,-0.80
2023-03-05T04:17:48.934Z,-0.90
2023-03-05T04:22:51.159Z,-1.10
2023-03-05T04:27:53.544Z,-1.20
2023-03-05T04:32:55.325Z,-1.30
2023-03-05T04:37:57.091Z,-1.30
2023-03-05T04:42:58.841Z,-1.30
2023-03-05T04:48:00.735Z,-1.30
2023-03-05T04:53:03.645Z,-1.20
2023-03-05T04:58:05.457Z,-1.10
2023-03-05T05:03:07.321Z,-1.00
2023-03-05T05:08:10.174Z,-0.90
2023-03-05T05:13:11.910Z,-0.90
2023-03-05T05:18:13.668Z,-0.80
2023-03-05T05:23:16.298Z,-0.80
2023-03-05T05:28:18.008Z,-0.70
2023-03-05T05:33:20.118Z,-0.70
2023-03-05T05:38:21.856Z,-0.60
2023-03-05T05:43:23.618Z,-0.50
2023-03-05T05:48:25.381Z,-0.40
2023-03-05T05:53:27.250Z,-0.50
2023-03-05T05:58:29.101Z,-0.30
2023-03-05T06:03:31.294Z,-0.20
2023-03-05T06:08:33.105Z,-0.20
2023-03-05T06:13:35.273Z,0.00
2023-03-05T06:18:37.086Z,0.10
2023-03-05T06:23:39.064Z,0.10
2023-03-05T06:28:41.647Z,0.30
2023-03-05T06:33:44.022Z,0.30
2023-03-05T06:38:47.864Z,0.40
2023-03-05T06:43:50.259Z,0.50
2023-03-05T06:48:52.893Z,0.60
2023-03-05T06:53:55.826Z,0.70
2023-03-05T06:58:57.584Z,0.60
2023-03-05T07:04:00.712Z,0.60
2023-03-05T07:09:03.669Z,0.70
2023-03-05T07:14:05.498Z,0.70
2023-03-05T07:19:08.015Z,0.60
2023-03-05T07:24:12.247Z,0.70
2023-03-05T07:29:13.977Z,0.70
2023-03-05T07:34:16.117Z,1.00
2023-03-05T07:39:21.423Z,1.10
2023-03-05T07:44:23.174Z,0.90
2023-03-05T07:49:25.197Z,0.90
2023-03-05T07:54:27.122Z,0.80
2023-03-05T07:59:28.990Z,0.80
2023-03-05T08:04:32.331Z,1.10
2023-03-05T08:09:34.071Z,1.50
2023-03-05T08:14:36.100Z,1.80
2023-03-05T08:19:38.245Z,1.60
2023-03-05T08:24:40.235Z,1.40
2023-03-05T08:29:42.070Z,1.60
2023-03-05T08:34:43.979Z,1.50
2023-03-05T08:39:45.725Z,1.60
2023-03-05T08:44:47.591Z,1.60
2023-03-05T08:49:49.412Z,1.90
2023-03-05T08:54:51.118Z,1.80
2023-03-05T08:59:53.014Z,1.70
2023-03-05T09:04:54.985Z,1.60
2023-03-05T09:09:56.738Z,1.90
2023-03-05T09:14:58.718Z,2.30
2023-03-05T09:20:00.653Z,2.40
2023-03-05T09:25:02.363Z,2.20
2023-03-05T09:30:05.825Z,2.00
2023-03-05T09:35:08.192Z,2.20
2023-03-05T09:40:18.238Z,2.20
2023-03-05T09:45:19.918Z,2.60
2023-03-05T09:50:34.814Z,2.90
2023-03-05T09:55:41.014Z,3.20
2023-03-05T10:00:52.790Z,2.70
2023-03-05T10:06:23.427Z,2.90
2023-03-05T10:11:27.874Z,2.70
2023-03-05T10:16:51.771Z,2.60
2023-03-05T10:22:15.018Z,2.40
2023-03-05T10:27:39.767Z,2.50
2023-03-05T10:33:09.841Z,2.60
2023-03-05T10:38:32.654Z,2.90
2023-03-05T10:44:17.189Z,2.90
2023-03-05T10:49:42.610Z,2.80
2023-03-05T10:54:44.349Z,2.60
2023-03-05T11:00:14.338Z,3.10
2023-03-05T11:05:40.967Z,2.90
2023-03-05T11:10:42.797Z,2.90
2023-03-05T11:15:44.576Z,2.70
2023-03-05T11:20:47.018Z,3.40
2023-03-05T11:25:48.701Z,3.20
2023-03-05T11:31:24.281Z,3.40
2023-03-05T11:36:27.890Z,3.50
2023-03-05T11:41:37.138Z,3.00
2023-03-05T11:46:43.274Z,2.90
2023-03-05T11:51:56.129Z,2.90
2023-03-05T11:56:58.148Z,2.80
2023-03-05T12:02:00.700Z,3.10
2023-03-05T12:07:04.297Z,2.90
2023-03-05T12:12:25.250Z,2.60
2023-03-05T12:17:45.693Z,2.40
2023-03-05T12:22:47.523Z,3.10
2023-03-05T12:27:49.629Z,3.50
2023-03-05T12:32:52.870Z,3.80
2023-03-05T12:37:54.617Z,3.30
2023-03-05T12:42:59.681Z,3.30
2023-03-05T12:48:01.859Z,3.00
2023-03-05T12:53:19.694Z,3.50
2023-03-05T12:58:44.152Z,4.20
2023-03-05T13:03:59.888Z,3.60
2023-03-05T13:09:07.112Z,3.50
2023-03-05T13:14:31.194Z,3.50
2023-03-05T13:19:33.285Z,3.20
2023-03-05T13:24:35.007Z,2.70
2023-03-05T13:29:52.582Z,2.50
2023-03-05T13:34:56.944Z,2.40
2023-03-05T13:40:25.304Z,2.50
2023-03-05T13:45:29.823Z,2.50
2023-03-05T13:50:34.168Z,2.60
2023-03-05T13:55:35.935Z,2.60
2023-03-05T14:00:42.081Z,2.70
2023-03-05T14:05:45.409Z,2.30
2023-03-05T14:10:47.762Z,2.20
2023-03-05T14:16:13.541Z,2.30
2023-03-05T14:21:15.325Z,2.60
2023-03-05T14:26:22.850Z,2.30
2023-03-05T14:31:26.044Z,2.10
2023-03-05T14:36:29.631Z,2.10
2023-03-05T14:41:41.061Z,2.00
2023-03-05T14:46:47.891Z,1.90
2023-03-05T14:51:49.650Z,1.60
2023-03-05T14:56:51.633Z,1.40
2023-03-05T15:01:54.261Z,1.10
2023-03-05T15:06:56.137Z,0.90
2023-03-05T15:11:57.846Z,0.80
2023-03-05T15:17:00.352Z,0.60
2023-03-05T15:22:02.489Z,0.50
2023-03-05T15:27:05.792Z,0.40
2023-03-05T15:32:07.996Z,0.30
2023-03-05T15:37:10.106Z,0.20
2023-03-05T15:42:11.837Z,0.00
2023-03-05T15:47:13.585Z,-0.10
2023-03-05T15:52:15.776Z,-0.30
2023-03-05T15:57:22.473Z,-0.40
2023-03-05T16:02:25.232Z,-0.40
2023-03-05T16:07:27.314Z,-0.40
2023-03-05T16:12:40.564Z,-0.30
2023-03-05T16:17:45.273Z,-0.30
2023-03-05T16:22:47.195Z,-0.20
2023-03-05T16:27:48.977Z,-0.20
2023-03-05T16:32:53.476Z,-0.20
2023-03-05T16:37:55.405Z,-0.20
2023-03-05T16:42:57.196Z,-0.30
2023-03-05T16:47:59.202Z,-0.30
2023-03-05T16:53:00.948Z,-0.40
2023-03-05T16:58:03.084Z,-0.50
2023-03-05T17:03:04.838Z,-0.60
2023-03-05T17:08:07.028Z,-0.70
2023-03-05T17:13:09.135Z,-0.90
2023-03-05T17:18:11.315Z,-1.00
2023-03-05T17:23:13.267Z,-1.00
2023-03-05T17:28:15.420Z,-1.00
2023-03-05T17:33:17.366Z,-1.10
2023-03-05T17:38:19.237Z,-1.20
2023-03-05T17:43:21.837Z,-1.30
2023-03-05T17:48:23.558Z,-1.30
2023-03-05T17:53:25.316Z,-1.50
2023-03-05T17:58:27.261Z,-1.70
2023-03-05T18:03:29.130Z,-1.70
2023-03-05T18:08:30.910Z,-1.80
2023-03-05T18:13:32.682Z,-1.80
2023-03-05T18:18:34.770Z,-1.60
2023-03-05T18:23:37.395Z,-1.40
2023-03-05T18:28:39.237Z,-1.40
2023-03-05T18:33:42.207Z,-1.60
2023-03-05T18:38:44.401Z,-1.60
2023-03-05T18:43:46.944Z,-1.80
2023-03-05T18:48:48.709Z,-1.90
2023-03-05T18:53:51.914Z,-2.00
2023-03-05T18:58:53.981Z,-2.10
2023-03-05T19:03:56.074Z,-2.10
2023-03-05T19:09:31.173Z,-2.20
2023-03-05T19:14:32.957Z,-2.00
2023-03-05T19:19:34.850Z,-1.90
2023-03-05T19:24:38.468Z,-1.90
2023-03-05T19:29:42.090Z,-1.80
2023-03-05T19:34:47.634Z,-1.90
2023-03-05T19:39:49.639Z,-1.90
2023-03-05T19:44:51.403Z,-2.10
2023-03-05T19:49:53.374Z,-2.20
2023-03-05T19:54:55.168Z,-2.20
2023-03-05T19:59:57.006Z,-2.30
2023-03-05T20:04:58.743Z,-2.40
2023-03-05T20:10:00.836Z,-2.50
2023-03-05T20:15:03.211Z,-2.50
2023-03-05T20:20:05.632Z,-2.40
2023-03-05T20:25:07.819Z,-2.40
2023-03-05T20:30:13.649Z,-2.20
2023-03-05T20:35:18.002Z,-2.10
2023-03-05T20:40:19.897Z,-2.00
2023-03-05T20:45:21.658Z,-2.00
2023-03-05T20:50:23.754Z,-2.20
2023-03-05T20:55:28.654Z,-2.30
2023-03-05T21:00:30.610Z,-2.30
2023-03-05T21:05:34.435Z,-2.30
2023-03-05T21:10:38.140Z,-2.40
2023-03-05T21:15:41.192Z,-2.50
2023-03-05T21:20:43.369Z,-2.60
2023-03-05T21:25:45.175Z,-2.60
2023-03-05T21:30:52.432Z,-2.70
2023-03-05T21:35:56.493Z,-2.80
2023-03-05T21:40:59.012Z,-2.60
2023-03-05T21:46:03.300Z,-2.60
2023-03-05T21:52:07.250Z,-2.70
2023-03-05T21:57:10.885Z,-2.70
2023-03-05T22:02:15.337Z,-2.60
2023-03-05T22:07:18.697Z,-2.50
2023-03-05T22:13:04.692Z,-2.40
2023-03-05T22:18:06.434Z,-2.40
2023-03-05T22:23:08.798Z,-2.30
2023-03-05T22:28:12.845Z,-2.30
2023-03-05T22:33:14.749Z,-2.30
2023-03-05T22:38:16.632Z,-2.30
2023-03-05T22:43:20.601Z,-2.30
2023-03-05T22:48:22.313Z,-2.30
2023-03-05T22:53:24.136Z,-2.50
2023-03-05T22:58:25.963Z,-2.60
2023-03-05T23:03:27.884Z,-2.70
2023-03-05T23:08:29.792Z,-2.70
2023-03-05T23:13:31.771Z,-2.90
2023-03-05T23:18:33.770Z,-3.00
2023-03-05T23:23:35.618Z,-3.00
2023-03-05T23:28:37.304Z,-3.00
2023-03-05T23:33:39.273Z,-3.10
2023-03-05T23:38:40.997Z,-3.10
2023-03-05T23:43:42.686Z,-3.10
2023-03-05T23:48:44.393Z,-3.10
2023-03-05T23:53:46.200Z,-3.20
2023-03-05T23:58:48.014Z,-3.20
